sensor_id;sensor_type;location;lat;lon;timestamp;P1;durP1;ratioP1;P2;durP2;ratioP2
6414;SDS011;3240;48.790;9.210;2023-02-25T00:00:53;10.50;;;4.53;;
6414;SDS011;3240;48.790;9.210;2023-02-25T00:03:21;12.23;;;4.33;;
6414;SDS011;3240;48.790;9.210;2023-02-25T00:05:49;10.73;;;4.57;;
6414;SDS011;3240;48.790;9.210;2023-02-25T00:08:17;13.00;;;5.77;;
6414;SDS011;3240;48.790;9.210;2023-02-25T00:10:45;7.80;;;4.30;;
6414;SDS011;3240;48.790;9.210;2023-02-25T00:13:13;7.87;;;4.73;;
6414;SDS011;3240;48.790;9.210;2023-02-25T00:15:41;11.47;;;4.40;;
6414;SDS011;3240;48.790;9.210;2023-02-25T00:18:09;15.80;;;5.00;;
6414;SDS011;3240;48.790;9.210;2023-02-25T00:20:38;9.40;;;5.27;;
6414;SDS011;3240;48.790;9.210;2023-02-25T00:23:06;9.13;;;4.53;;
6414;SDS011;3240;48.790;9.210;2023-02-25T00:25:34;9.30;;;4.70;;
6414;SDS011;3240;48.790;9.210;2023-02-25T00:28:02;12.00;;;5.50;;
6414;SDS011;3240;48.790;9.210;2023-02-25T00:30:31;7.20;;;4.60;;
6414;SDS011;3240;48.790;9.210;2023-02-25T00:32:58;8.87;;;4.67;;
6414;SDS011;3240;48.790;9.210;2023-02-25T00:35:26;9.60;;;4.60;;
6414;SDS011;3240;48.790;9.210;2023-02-25T00:37:54;7.75;;;4.60;;
6414;SDS011;3240;48.790;9.210;2023-02-25T00:40:22;9.63;;;4.97;;
6414;SDS011;3240;48.790;9.210;2023-02-25T00:42:50;8.23;;;4.70;;
6414;SDS011;3240;48.790;9.210;2023-02-25T00:45:18;8.07;;;4.50;;
6414;SDS011;3240;48.790;9.210;2023-02-25T00:47:46;8.57;;;5.60;;
6414;SDS011;3240;48.790;9.210;2023-02-25T00:50:14;10.80;;;5.40;;
6414;SDS011;3240;48.790;9.210;2023-02-25T00:52:42;10.10;;;5.07;;
6414;SDS011;3240;48.790;9.210;2023-02-25T00:55:11;12.97;;;5.53;;
6414;SDS011;3240;48.790;9.210;2023-02-25T00:57:38;9.10;;;5.17;;
6414;SDS011;3240;48.790;9.210;2023-02-25T01:00:07;10.23;;;4.93;;
6414;SDS011;3240;48.790;9.210;2023-02-25T01:02:35;9.40;;;6.07;;
6414;SDS011;3240;48.790;9.210;2023-02-25T01:05:03;11.70;;;6.03;;
6414;SDS011;3240;48.790;9.210;2023-02-25T01:07:31;9.70;;;5.13;;
6414;SDS011;3240;48.790;9.210;2023-02-25T01:09:59;8.37;;;5.20;;
6414;SDS011;3240;48.790;9.210;2023-02-25T01:12:27;6.93;;;4.70;;
6414;SDS011;3240;48.790;9.210;2023-02-25T01:14:56;8.83;;;5.20;;
6414;SDS011;3240;48.790;9.210;2023-02-25T01:17:23;9.90;;;4.70;;
6414;SDS011;3240;48.790;9.210;2023-02-25T01:19:51;8.53;;;5.20;;
6414;SDS011;3240;48.790;9.210;2023-02-25T01:22:19;7.67;;;4.50;;
6414;SDS011;3240;48.790;9.210;2023-02-25T01:24:47;7.10;;;4.30;;
6414;SDS011;3240;48.790;9.210;2023-02-25T01:27:15;9.40;;;5.10;;
6414;SDS011;3240;48.790;9.210;2023-02-25T01:29:43;12.23;;;4.63;;
6414;SDS011;3240;48.790;9.210;2023-02-25T01:32:12;5.60;;;4.03;;
6414;SDS011;3240;48.790;9.210;2023-02-25T01:34:40;7.37;;;4.50;;
6414;SDS011;3240;48.790;9.210;2023-02-25T01:37:08;8.07;;;4.50;;
6414;SDS011;3240;48.790;9.210;2023-02-25T01:39:36;4.87;;;4.07;;
6414;SDS011;3240;48.790;9.210;2023-02-25T01:42:09;7.77;;;4.43;;
6414;SDS011;3240;48.790;9.210;2023-02-25T01:44:33;7.70;;;3.97;;
6414;SDS011;3240;48.790;9.210;2023-02-25T01:47:00;6.93;;;4.07;;
6414;SDS011;3240;48.790;9.210;2023-02-25T01:49:31;5.13;;;3.77;;
6414;SDS011;3240;48.790;9.210;2023-02-25T01:52:03;11.47;;;4.17;;
6414;SDS011;3240;48.790;9.210;2023-02-25T01:54:30;10.80;;;3.70;;
6414;SDS011;3240;48.790;9.210;2023-02-25T01:56:58;5.20;;;3.80;;
6414;SDS011;3240;48.790;9.210;2023-02-25T01:59:26;12.00;;;3.97;;
6414;SDS011;3240;48.790;9.210;2023-02-25T02:01:54;11.07;;;3.33;;
6414;SDS011;3240;48.790;9.210;2023-02-25T02:04:22;4.50;;;2.53;;
6414;SDS011;3240;48.790;9.210;2023-02-25T02:06:50;6.00;;;3.57;;
6414;SDS011;3240;48.790;9.210;2023-02-25T02:09:19;4.83;;;3.13;;
6414;SDS011;3240;48.790;9.210;2023-02-25T02:11:46;4.97;;;2.60;;
6414;SDS011;3240;48.790;9.210;2023-02-25T02:14:15;6.10;;;2.97;;
6414;SDS011;3240;48.790;9.210;2023-02-25T02:16:55;5.03;;;3.20;;
6414;SDS011;3240;48.790;9.210;2023-02-25T02:22:27;9.53;;;3.07;;
6414;SDS011;3240;48.790;9.210;2023-02-25T02:24:41;4.00;;;2.67;;
6414;SDS011;3240;48.790;9.210;2023-02-25T02:27:08;5.60;;;2.93;;
6414;SDS011;3240;48.790;9.210;2023-02-25T02:32:15;6.57;;;2.73;;
6414;SDS011;3240;48.790;9.210;2023-02-25T02:34:50;4.70;;;2.97;;
6414;SDS011;3240;48.790;9.210;2023-02-25T02:37:20;8.10;;;3.20;;
6414;SDS011;3240;48.790;9.210;2023-02-25T02:39:48;6.03;;;2.83;;
6414;SDS011;3240;48.790;9.210;2023-02-25T02:42:19;4.83;;;2.40;;
6414;SDS011;3240;48.790;9.210;2023-02-25T02:45:18;6.17;;;3.33;;
6414;SDS011;3240;48.790;9.210;2023-02-25T02:47:29;6.77;;;2.70;;
6414;SDS011;3240;48.790;9.210;2023-02-25T02:49:56;6.60;;;3.37;;
6414;SDS011;3240;48.790;9.210;2023-02-25T02:52:26;4.33;;;2.57;;
6414;SDS011;3240;48.790;9.210;2023-02-25T02:54:54;7.17;;;3.53;;
6414;SDS011;3240;48.790;9.210;2023-02-25T02:57:20;5.27;;;3.03;;
6414;SDS011;3240;48.790;9.210;2023-02-25T02:59:51;4.73;;;2.40;;
6414;SDS011;3240;48.790;9.210;2023-02-25T03:02:19;6.00;;;3.10;;
6414;SDS011;3240;48.790;9.210;2023-02-25T03:04:45;4.20;;;2.50;;
6414;SDS011;3240;48.790;9.210;2023-02-25T03:07:13;4.40;;;2.93;;
6414;SDS011;3240;48.790;9.210;2023-02-25T03:09:50;7.30;;;3.30;;
6414;SDS011;3240;48.790;9.210;2023-02-25T03:12:19;4.23;;;2.83;;
6414;SDS011;3240;48.790;9.210;2023-02-25T03:14:47;6.77;;;3.57;;
6414;SDS011;3240;48.790;9.210;2023-02-25T03:17:18;5.50;;;3.07;;
6414;SDS011;3240;48.790;9.210;2023-02-25T03:19:46;4.00;;;2.43;;
6414;SDS011;3240;48.790;9.210;2023-02-25T03:22:14;7.20;;;2.67;;
6414;SDS011;3240;48.790;9.210;2023-02-25T03:24:42;7.80;;;2.87;;
6414;SDS011;3240;48.790;9.210;2023-02-25T03:27:23;5.63;;;2.70;;
6414;SDS011;3240;48.790;9.210;2023-02-25T03:29:51;6.43;;;2.90;;
6414;SDS011;3240;48.790;9.210;2023-02-25T03:32:19;5.37;;;2.60;;
6414;SDS011;3240;48.790;9.210;2023-02-25T03:34:48;7.83;;;2.60;;
6414;SDS011;3240;48.790;9.210;2023-02-25T03:37:17;8.30;;;3.07;;
6414;SDS011;3240;48.790;9.210;2023-02-25T03:39:46;7.07;;;2.47;;
6414;SDS011;3240;48.790;9.210;2023-02-25T03:42:13;4.10;;;2.23;;
6414;SDS011;3240;48.790;9.210;2023-02-25T03:44:45;3.20;;;2.17;;
6414;SDS011;3240;48.790;9.210;2023-02-25T03:47:11;6.90;;;2.00;;
6414;SDS011;3240;48.790;9.210;2023-02-25T03:49:45;4.03;;;2.60;;
6414;SDS011;3240;48.790;9.210;2023-02-25T03:52:14;5.97;;;2.30;;
6414;SDS011;3240;48.790;9.210;2023-02-25T03:54:39;4.90;;;2.20;;
6414;SDS011;3240;48.790;9.210;2023-02-25T03:57:07;6.50;;;2.30;;
6414;SDS011;3240;48.790;9.210;2023-02-25T03:59:35;4.63;;;2.20;;
6414;SDS011;3240;48.790;9.210;2023-02-25T04:02:03;3.30;;;2.27;;
6414;SDS011;3240;48.790;9.210;2023-02-25T04:04:31;7.10;;;2.50;;
6414;SDS011;3240;48.790;9.210;2023-02-25T04:06:59;5.77;;;1.60;;
6414;SDS011;3240;48.790;9.210;2023-02-25T04:09:27;13.70;;;2.10;;
6414;SDS011;3240;48.790;9.210;2023-02-25T04:11:55;6.53;;;2.43;;
6414;SDS011;3240;48.790;9.210;2023-02-25T04:14:23;10.47;;;1.77;;
6414;SDS011;3240;48.790;9.210;2023-02-25T04:16:51;3.53;;;1.40;;
6414;SDS011;3240;48.790;9.210;2023-02-25T04:19:19;6.03;;;2.20;;
6414;SDS011;3240;48.790;9.210;2023-02-25T04:21:47;4.87;;;1.70;;
6414;SDS011;3240;48.790;9.210;2023-02-25T04:24:15;4.37;;;1.50;;
6414;SDS011;3240;48.790;9.210;2023-02-25T04:26:43;7.13;;;1.80;;
6414;SDS011;3240;48.790;9.210;2023-02-25T04:29:11;6.60;;;1.50;;
6414;SDS011;3240;48.790;9.210;2023-02-25T04:31:39;4.00;;;1.20;;
6414;SDS011;3240;48.790;9.210;2023-02-25T04:34:07;4.63;;;1.87;;
6414;SDS011;3240;48.790;9.210;2023-02-25T04:36:35;2.57;;;1.23;;
6414;SDS011;3240;48.790;9.210;2023-02-25T04:39:03;2.60;;;0.90;;
6414;SDS011;3240;48.790;9.210;2023-02-25T04:41:32;3.60;;;1.37;;
6414;SDS011;3240;48.790;9.210;2023-02-25T04:43:59;6.47;;;1.47;;
6414;SDS011;3240;48.790;9.210;2023-02-25T04:46:27;8.10;;;1.80;;
6414;SDS011;3240;48.790;9.210;2023-02-25T04:48:55;5.73;;;1.87;;
6414;SDS011;3240;48.790;9.210;2023-02-25T04:51:23;2.90;;;1.37;;
6414;SDS011;3240;48.790;9.210;2023-02-25T04:53:51;4.40;;;1.63;;
6414;SDS011;3240;48.790;9.210;2023-02-25T04:56:19;9.40;;;1.83;;
6414;SDS011;3240;48.790;9.210;2023-02-25T04:58:47;4.60;;;1.37;;
6414;SDS011;3240;48.790;9.210;2023-02-25T05:01:15;4.30;;;1.50;;
6414;SDS011;3240;48.790;9.210;2023-02-25T05:03:44;5.33;;;1.70;;
6414;SDS011;3240;48.790;9.210;2023-02-25T05:06:12;3.00;;;1.50;;
6414;SDS011;3240;48.790;9.210;2023-02-25T05:08:40;6.30;;;1.30;;
6414;SDS011;3240;48.790;9.210;2023-02-25T05:11:08;4.07;;;1.47;;
6414;SDS011;3240;48.790;9.210;2023-02-25T05:13:36;5.63;;;1.63;;
6414;SDS011;3240;48.790;9.210;2023-02-25T05:16:05;8.53;;;1.60;;
6414;SDS011;3240;48.790;9.210;2023-02-25T05:18:34;4.87;;;1.43;;
6414;SDS011;3240;48.790;9.210;2023-02-25T05:21:02;2.50;;;0.80;;
6414;SDS011;3240;48.790;9.210;2023-02-25T05:23:30;6.33;;;1.40;;
6414;SDS011;3240;48.790;9.210;2023-02-25T05:25:58;5.10;;;1.33;;
6414;SDS011;3240;48.790;9.210;2023-02-25T05:28:26;2.97;;;1.57;;
6414;SDS011;3240;48.790;9.210;2023-02-25T05:30:55;4.60;;;1.07;;
6414;SDS011;3240;48.790;9.210;2023-02-25T05:33:23;5.40;;;1.47;;
6414;SDS011;3240;48.790;9.210;2023-02-25T05:35:51;9.47;;;1.10;;
6414;SDS011;3240;48.790;9.210;2023-02-25T05:38:19;9.47;;;1.63;;
6414;SDS011;3240;48.790;9.210;2023-02-25T05:40:47;4.30;;;1.30;;
6414;SDS011;3240;48.790;9.210;2023-02-25T05:43:15;4.87;;;1.07;;
6414;SDS011;3240;48.790;9.210;2023-02-25T05:45:43;5.33;;;1.30;;
6414;SDS011;3240;48.790;9.210;2023-02-25T05:48:11;3.10;;;1.17;;
6414;SDS011;3240;48.790;9.210;2023-02-25T05:50:39;4.90;;;1.17;;
6414;SDS011;3240;48.790;9.210;2023-02-25T05:53:07;4.30;;;0.90;;
6414;SDS011;3240;48.790;9.210;2023-02-25T05:55:39;4.77;;;1.30;;
6414;SDS011;3240;48.790;9.210;2023-02-25T05:58:03;6.07;;;1.10;;
6414;SDS011;3240;48.790;9.210;2023-02-25T06:00:31;1.37;;;0.83;;
6414;SDS011;3240;48.790;9.210;2023-02-25T06:02:59;5.00;;;1.20;;
6414;SDS011;3240;48.790;9.210;2023-02-25T06:05:27;2.75;;;0.98;;
6414;SDS011;3240;48.790;9.210;2023-02-25T06:07:56;3.50;;;1.10;;
6414;SDS011;3240;48.790;9.210;2023-02-25T06:10:24;2.40;;;0.93;;
6414;SDS011;3240;48.790;9.210;2023-02-25T06:12:52;3.43;;;0.90;;
6414;SDS011;3240;48.790;9.210;2023-02-25T06:15:20;2.90;;;0.90;;
6414;SDS011;3240;48.790;9.210;2023-02-25T06:17:48;4.80;;;0.90;;
6414;SDS011;3240;48.790;9.210;2023-02-25T06:20:16;4.03;;;1.30;;
6414;SDS011;3240;48.790;9.210;2023-02-25T06:22:44;10.67;;;1.47;;
6414;SDS011;3240;48.790;9.210;2023-02-25T06:25:12;4.13;;;1.20;;
6414;SDS011;3240;48.790;9.210;2023-02-25T06:27:40;6.90;;;1.60;;
6414;SDS011;3240;48.790;9.210;2023-02-25T06:30:08;2.37;;;0.90;;
6414;SDS011;3240;48.790;9.210;2023-02-25T06:32:37;5.70;;;1.50;;
6414;SDS011;3240;48.790;9.210;2023-02-25T06:35:05;3.07;;;1.00;;
6414;SDS011;3240;48.790;9.210;2023-02-25T06:37:33;3.20;;;1.30;;
6414;SDS011;3240;48.790;9.210;2023-02-25T06:40:01;3.60;;;0.80;;
6414;SDS011;3240;48.790;9.210;2023-02-25T06:42:29;3.00;;;1.00;;
6414;SDS011;3240;48.790;9.210;2023-02-25T06:44:57;9.70;;;1.50;;
6414;SDS011;3240;48.790;9.210;2023-02-25T06:47:25;3.80;;;1.10;;
6414;SDS011;3240;48.790;9.210;2023-02-25T06:49:53;2.30;;;0.93;;
6414;SDS011;3240;48.790;9.210;2023-02-25T06:52:22;4.97;;;1.17;;
6414;SDS011;3240;48.790;9.210;2023-02-25T06:54:49;2.53;;;0.80;;
6414;SDS011;3240;48.790;9.210;2023-02-25T06:57:17;3.40;;;1.30;;
6414;SDS011;3240;48.790;9.210;2023-02-25T06:59:45;6.80;;;1.23;;
6414;SDS011;3240;48.790;9.210;2023-02-25T07:02:14;3.70;;;1.00;;
6414;SDS011;3240;48.790;9.210;2023-02-25T07:04:42;4.80;;;1.17;;
6414;SDS011;3240;48.790;9.210;2023-02-25T07:07:10;3.03;;;1.20;;
6414;SDS011;3240;48.790;9.210;2023-02-25T07:09:38;6.00;;;1.00;;
6414;SDS011;3240;48.790;9.210;2023-02-25T07:12:06;3.67;;;1.07;;
6414;SDS011;3240;48.790;9.210;2023-02-25T07:14:34;13.20;;;1.20;;
6414;SDS011;3240;48.790;9.210;2023-02-25T07:17:02;2.00;;;1.00;;
6414;SDS011;3240;48.790;9.210;2023-02-25T07:19:30;3.33;;;0.83;;
6414;SDS011;3240;48.790;9.210;2023-02-25T07:21:58;3.20;;;1.10;;
6414;SDS011;3240;48.790;9.210;2023-02-25T07:24:26;7.80;;;1.40;;
6414;SDS011;3240;48.790;9.210;2023-02-25T07:26:54;5.80;;;1.33;;
6414;SDS011;3240;48.790;9.210;2023-02-25T07:29:22;3.13;;;1.23;;
6414;SDS011;3240;48.790;9.210;2023-02-25T07:31:50;3.47;;;1.43;;
6414;SDS011;3240;48.790;9.210;2023-02-25T07:34:18;3.33;;;0.90;;
6414;SDS011;3240;48.790;9.210;2023-02-25T07:36:46;2.50;;;1.10;;
6414;SDS011;3240;48.790;9.210;2023-02-25T07:39:14;5.20;;;0.90;;
6414;SDS011;3240;48.790;9.210;2023-02-25T07:41:43;3.73;;;1.00;;
6414;SDS011;3240;48.790;9.210;2023-02-25T07:44:11;3.47;;;1.27;;
6414;SDS011;3240;48.790;9.210;2023-02-25T07:46:39;4.77;;;1.57;;
6414;SDS011;3240;48.790;9.210;2023-02-25T07:49:07;5.50;;;1.70;;
6414;SDS011;3240;48.790;9.210;2023-02-25T07:51:35;1.90;;;1.13;;
6414;SDS011;3240;48.790;9.210;2023-02-25T07:54:03;4.00;;;1.10;;
6414;SDS011;3240;48.790;9.210;2023-02-25T07:56:31;7.53;;;1.03;;
6414;SDS011;3240;48.790;9.210;2023-02-25T07:58:59;4.50;;;1.00;;
6414;SDS011;3240;48.790;9.210;2023-02-25T08:01:29;3.57;;;1.40;;
6414;SDS011;3240;48.790;9.210;2023-02-25T08:03:57;6.10;;;1.10;;
6414;SDS011;3240;48.790;9.210;2023-02-25T08:06:25;2.30;;;0.93;;
6414;SDS011;3240;48.790;9.210;2023-02-25T08:08:52;2.60;;;1.27;;
6414;SDS011;3240;48.790;9.210;2023-02-25T08:11:21;6.97;;;1.13;;
6414;SDS011;3240;48.790;9.210;2023-02-25T08:13:48;1.30;;;0.97;;
6414;SDS011;3240;48.790;9.210;2023-02-25T08:16:17;5.53;;;1.20;;
6414;SDS011;3240;48.790;9.210;2023-02-25T08:18:44;4.20;;;1.17;;
6414;SDS011;3240;48.790;9.210;2023-02-25T08:21:13;3.77;;;1.43;;
6414;SDS011;3240;48.790;9.210;2023-02-25T08:23:40;4.80;;;1.00;;
6414;SDS011;3240;48.790;9.210;2023-02-25T08:26:09;6.87;;;1.30;;
6414;SDS011;3240;48.790;9.210;2023-02-25T08:28:36;8.13;;;1.33;;
6414;SDS011;3240;48.790;9.210;2023-02-25T08:31:06;3.47;;;1.20;;
6414;SDS011;3240;48.790;9.210;2023-02-25T08:33:32;1.50;;;1.07;;
6414;SDS011;3240;48.790;9.210;2023-02-25T08:36:21;4.00;;;1.43;;
6414;SDS011;3240;48.790;9.210;2023-02-25T08:38:47;3.30;;;1.03;;
6414;SDS011;3240;48.790;9.210;2023-02-25T08:41:16;3.93;;;1.10;;
6414;SDS011;3240;48.790;9.210;2023-02-25T08:46:26;4.33;;;1.60;;
6414;SDS011;3240;48.790;9.210;2023-02-25T08:48:53;5.20;;;1.20;;
6414;SDS011;3240;48.790;9.210;2023-02-25T08:51:21;4.37;;;0.90;;
6414;SDS011;3240;48.790;9.210;2023-02-25T08:53:49;4.00;;;1.00;;
6414;SDS011;3240;48.790;9.210;2023-02-25T08:56:17;4.27;;;1.27;;
6414;SDS011;3240;48.790;9.210;2023-02-25T08:58:45;6.70;;;1.13;;
6414;SDS011;3240;48.790;9.210;2023-02-25T09:01:15;6.00;;;1.50;;
6414;SDS011;3240;48.790;9.210;2023-02-25T09:03:42;4.07;;;1.47;;
6414;SDS011;3240;48.790;9.210;2023-02-25T09:06:25;2.87;;;1.30;;
6414;SDS011;3240;48.790;9.210;2023-02-25T09:08:52;5.50;;;1.17;;
6414;SDS011;3240;48.790;9.210;2023-02-25T09:11:20;1.90;;;1.10;;
6414;SDS011;3240;48.790;9.210;2023-02-25T09:13:48;1.30;;;0.90;;
6414;SDS011;3240;48.790;9.210;2023-02-25T09:16:16;2.77;;;1.00;;
6414;SDS011;3240;48.790;9.210;2023-02-25T09:18:45;3.07;;;1.20;;
6414;SDS011;3240;48.790;9.210;2023-02-25T09:21:12;2.60;;;1.40;;
6414;SDS011;3240;48.790;9.210;2023-02-25T09:23:40;3.20;;;1.10;;
6414;SDS011;3240;48.790;9.210;2023-02-25T09:26:08;3.57;;;1.10;;
6414;SDS011;3240;48.790;9.210;2023-02-25T09:28:36;1.53;;;1.00;;
6414;SDS011;3240;48.790;9.210;2023-02-25T09:31:04;5.80;;;1.40;;
6414;SDS011;3240;48.790;9.210;2023-02-25T09:33:33;3.10;;;1.27;;
6414;SDS011;3240;48.790;9.210;2023-02-25T09:36:05;3.57;;;1.40;;
6414;SDS011;3240;48.790;9.210;2023-02-25T09:38:32;1.53;;;0.80;;
6414;SDS011;3240;48.790;9.210;2023-02-25T09:41:00;3.40;;;0.80;;
6414;SDS011;3240;48.790;9.210;2023-02-25T09:43:29;2.20;;;0.60;;
6414;SDS011;3240;48.790;9.210;2023-02-25T09:45:59;1.60;;;0.50;;
6414;SDS011;3240;48.790;9.210;2023-02-25T09:48:25;6.37;;;0.80;;
6414;SDS011;3240;48.790;9.210;2023-02-25T09:50:56;2.53;;;0.87;;
6414;SDS011;3240;48.790;9.210;2023-02-25T09:53:38;3.27;;;0.60;;
6414;SDS011;3240;48.790;9.210;2023-02-25T09:56:05;1.43;;;0.60;;
6414;SDS011;3240;48.790;9.210;2023-02-25T09:58:36;1.80;;;0.50;;
6414;SDS011;3240;48.790;9.210;2023-02-25T10:01:05;1.27;;;0.80;;
6414;SDS011;3240;48.790;9.210;2023-02-25T10:03:38;2.93;;;0.63;;
6414;SDS011;3240;48.790;9.210;2023-02-25T10:06:02;5.57;;;1.07;;
6414;SDS011;3240;48.790;9.210;2023-02-25T10:08:32;1.57;;;0.70;;
6414;SDS011;3240;48.790;9.210;2023-02-25T10:11:02;1.53;;;0.50;;
6414;SDS011;3240;48.790;9.210;2023-02-25T10:19:07;4.37;;;0.87;;
6414;SDS011;3240;48.790;9.210;2023-02-25T10:21:40;2.03;;;0.50;;
6414;SDS011;3240;48.790;9.210;2023-02-25T10:24:11;7.13;;;2.40;;
6414;SDS011;3240;48.790;9.210;2023-02-25T10:29:23;3.37;;;0.60;;
6414;SDS011;3240;48.790;9.210;2023-02-25T10:31:48;2.50;;;0.53;;
6414;SDS011;3240;48.790;9.210;2023-02-25T10:34:20;1.63;;;0.60;;
6414;SDS011;3240;48.790;9.210;2023-02-25T10:36:51;2.30;;;0.87;;
6414;SDS011;3240;48.790;9.210;2023-02-25T10:39:15;2.33;;;0.60;;
6414;SDS011;3240;48.790;9.210;2023-02-25T10:41:44;1.43;;;0.67;;
6414;SDS011;3240;48.790;9.210;2023-02-25T10:44:12;4.30;;;0.73;;
6414;SDS011;3240;48.790;9.210;2023-02-25T10:46:44;2.00;;;0.60;;
6414;SDS011;3240;48.790;9.210;2023-02-25T10:49:14;4.80;;;0.70;;
6414;SDS011;3240;48.790;9.210;2023-02-25T10:54:15;1.10;;;0.60;;
6414;SDS011;3240;48.790;9.210;2023-02-25T10:56:43;1.70;;;0.80;;
6414;SDS011;3240;48.790;9.210;2023-02-25T11:01:45;3.53;;;0.60;;
6414;SDS011;3240;48.790;9.210;2023-02-25T11:04:14;2.30;;;0.80;;
6414;SDS011;3240;48.790;9.210;2023-02-25T11:06:41;2.23;;;0.70;;
6414;SDS011;3240;48.790;9.210;2023-02-25T11:11:59;5.40;;;0.97;;
6414;SDS011;3240;48.790;9.210;2023-02-25T11:14:26;1.43;;;0.57;;
6414;SDS011;3240;48.790;9.210;2023-02-25T11:19:28;2.55;;;0.70;;
6414;SDS011;3240;48.790;9.210;2023-02-25T11:21:56;1.90;;;0.80;;
6414;SDS011;3240;48.790;9.210;2023-02-25T11:24:28;2.57;;;0.90;;
6414;SDS011;3240;48.790;9.210;2023-02-25T11:26:54;1.47;;;0.93;;
6414;SDS011;3240;48.790;9.210;2023-02-25T11:32:07;3.13;;;0.80;;
6414;SDS011;3240;48.790;9.210;2023-02-25T11:34:35;1.70;;;0.90;;
6414;SDS011;3240;48.790;9.210;2023-02-25T11:39:36;2.23;;;0.83;;
6414;SDS011;3240;48.790;9.210;2023-02-25T11:42:19;3.70;;;1.03;;
6414;SDS011;3240;48.790;9.210;2023-02-25T11:47:19;5.50;;;1.50;;
6414;SDS011;3240;48.790;9.210;2023-02-25T11:49:48;6.47;;;1.10;;
6414;SDS011;3240;48.790;9.210;2023-02-25T11:52:17;4.70;;;1.30;;
6414;SDS011;3240;48.790;9.210;2023-02-25T11:54:44;0.90;;;0.70;;
6414;SDS011;3240;48.790;9.210;2023-02-25T11:57:11;2.93;;;1.07;;
6414;SDS011;3240;48.790;9.210;2023-02-25T11:59:43;1.80;;;0.90;;
6414;SDS011;3240;48.790;9.210;2023-02-25T12:04:44;3.00;;;1.00;;
6414;SDS011;3240;48.790;9.210;2023-02-25T12:07:15;2.40;;;1.27;;
6414;SDS011;3240;48.790;9.210;2023-02-25T12:09:43;1.50;;;0.80;;
6414;SDS011;3240;48.790;9.210;2023-02-25T12:14:49;5.00;;;0.90;;
6414;SDS011;3240;48.790;9.210;2023-02-25T12:17:17;2.00;;;1.10;;
6414;SDS011;3240;48.790;9.210;2023-02-25T12:22:34;2.80;;;1.20;;
6414;SDS011;3240;48.790;9.210;2023-02-25T12:25:30;2.43;;;1.53;;
6414;SDS011;3240;48.790;9.210;2023-02-25T12:30:21;8.30;;;1.63;;
6414;SDS011;3240;48.790;9.210;2023-02-25T12:32:50;2.43;;;1.30;;
6414;SDS011;3240;48.790;9.210;2023-02-25T12:38:26;4.00;;;1.10;;
6414;SDS011;3240;48.790;9.210;2023-02-25T12:40:39;3.30;;;1.27;;
6414;SDS011;3240;48.790;9.210;2023-02-25T12:45:43;4.67;;;1.60;;
6414;SDS011;3240;48.790;9.210;2023-02-25T12:48:24;2.37;;;1.37;;
6414;SDS011;3240;48.790;9.210;2023-02-25T12:50:54;6.50;;;1.90;;
6414;SDS011;3240;48.790;9.210;2023-02-25T12:53:23;5.30;;;1.77;;
6414;SDS011;3240;48.790;9.210;2023-02-25T12:55:51;8.00;;;1.50;;
6414;SDS011;3240;48.790;9.210;2023-02-25T12:58:23;6.50;;;1.97;;
6414;SDS011;3240;48.790;9.210;2023-02-25T13:00:53;6.53;;;1.90;;
6414;SDS011;3240;48.790;9.210;2023-02-25T13:06:02;4.15;;;1.60;;
6414;SDS011;3240;48.790;9.210;2023-02-25T13:08:33;2.70;;;1.40;;
6414;SDS011;3240;48.790;9.210;2023-02-25T13:13:54;2.40;;;1.20;;
6414;SDS011;3240;48.790;9.210;2023-02-25T13:16:25;1.67;;;1.20;;
6414;SDS011;3240;48.790;9.210;2023-02-25T13:21:31;8.10;;;1.50;;
6414;SDS011;3240;48.790;9.210;2023-02-25T13:23:59;2.17;;;1.60;;
6414;SDS011;3240;48.790;9.210;2023-02-25T13:26:31;3.77;;;1.60;;
6414;SDS011;3240;48.790;9.210;2023-02-25T13:31:33;8.23;;;1.73;;
6414;SDS011;3240;48.790;9.210;2023-02-25T13:34:03;4.83;;;1.40;;
6414;SDS011;3240;48.790;9.210;2023-02-25T13:36:32;2.37;;;1.30;;
6414;SDS011;3240;48.790;9.210;2023-02-25T13:39:05;4.93;;;1.60;;
6414;SDS011;3240;48.790;9.210;2023-02-25T13:41:33;3.40;;;1.57;;
6414;SDS011;3240;48.790;9.210;2023-02-25T13:44:03;5.93;;;1.13;;
6414;SDS011;3240;48.790;9.210;2023-02-25T13:46:27;5.10;;;1.90;;
6414;SDS011;3240;48.790;9.210;2023-02-25T13:51:44;3.80;;;1.73;;
6414;SDS011;3240;48.790;9.210;2023-02-25T13:54:46;5.50;;;1.43;;
6414;SDS011;3240;48.790;9.210;2023-02-25T13:56:54;3.50;;;1.10;;
6414;SDS011;3240;48.790;9.210;2023-02-25T14:01:58;3.87;;;1.23;;
6414;SDS011;3240;48.790;9.210;2023-02-25T14:07:15;4.03;;;1.23;;
6414;SDS011;3240;48.790;9.210;2023-02-25T14:09:44;2.90;;;1.20;;
6414;SDS011;3240;48.790;9.210;2023-02-25T14:12:20;2.73;;;1.00;;
6414;SDS011;3240;48.790;9.210;2023-02-25T14:17:31;5.10;;;1.37;;
6414;SDS011;3240;48.790;9.210;2023-02-25T14:20:18;4.10;;;1.33;;
6414;SDS011;3240;48.790;9.210;2023-02-25T14:22:46;4.47;;;1.10;;
6414;SDS011;3240;48.790;9.210;2023-02-25T14:30:24;7.20;;;1.00;;
6414;SDS011;3240;48.790;9.210;2023-02-25T14:35:28;5.53;;;1.30;;
6414;SDS011;3240;48.790;9.210;2023-02-25T14:38:00;4.23;;;1.30;;
6414;SDS011;3240;48.790;9.210;2023-02-25T14:40:27;3.53;;;1.17;;
6414;SDS011;3240;48.790;9.210;2023-02-25T14:42:59;5.67;;;1.47;;
6414;SDS011;3240;48.790;9.210;2023-02-25T14:45:25;4.20;;;1.60;;
6414;SDS011;3240;48.790;9.210;2023-02-25T14:47:55;2.23;;;0.97;;
6414;SDS011;3240;48.790;9.210;2023-02-25T14:50:23;5.50;;;1.50;;
6414;SDS011;3240;48.790;9.210;2023-02-25T14:52:56;6.40;;;1.53;;
6414;SDS011;3240;48.790;9.210;2023-02-25T14:55:23;2.33;;;0.97;;
6414;SDS011;3240;48.790;9.210;2023-02-25T14:58:28;4.33;;;1.40;;
6414;SDS011;3240;48.790;9.210;2023-02-25T15:08:22;5.33;;;1.80;;
6414;SDS011;3240;48.790;9.210;2023-02-25T15:10:50;5.20;;;1.33;;
6414;SDS011;3240;48.790;9.210;2023-02-25T15:13:49;5.87;;;1.60;;
6414;SDS011;3240;48.790;9.210;2023-02-25T15:18:42;4.10;;;1.17;;
6414;SDS011;3240;48.790;9.210;2023-02-25T15:21:21;5.50;;;1.43;;
6414;SDS011;3240;48.790;9.210;2023-02-25T15:23:43;7.43;;;1.70;;
6414;SDS011;3240;48.790;9.210;2023-02-25T15:26:17;5.27;;;1.20;;
6414;SDS011;3240;48.790;9.210;2023-02-25T15:28:38;4.63;;;1.33;;
6414;SDS011;3240;48.790;9.210;2023-02-25T15:31:08;3.10;;;1.50;;
6414;SDS011;3240;48.790;9.210;2023-02-25T15:33:38;4.10;;;1.33;;
6414;SDS011;3240;48.790;9.210;2023-02-25T15:38:41;3.33;;;1.23;;
6414;SDS011;3240;48.790;9.210;2023-02-25T15:43:50;5.87;;;1.40;;
6414;SDS011;3240;48.790;9.210;2023-02-25T15:49:08;3.10;;;1.00;;
6414;SDS011;3240;48.790;9.210;2023-02-25T15:54:09;5.00;;;1.33;;
6414;SDS011;3240;48.790;9.210;2023-02-25T15:56:45;5.67;;;1.43;;
6414;SDS011;3240;48.790;9.210;2023-02-25T15:59:16;4.40;;;1.27;;
6414;SDS011;3240;48.790;9.210;2023-02-25T16:01:40;5.73;;;1.17;;
6414;SDS011;3240;48.790;9.210;2023-02-25T16:04:35;8.23;;;1.77;;
6414;SDS011;3240;48.790;9.210;2023-02-25T16:06:39;5.13;;;1.77;;
6414;SDS011;3240;48.790;9.210;2023-02-25T16:09:08;3.80;;;1.30;;
6414;SDS011;3240;48.790;9.210;2023-02-25T16:11:37;4.43;;;1.87;;
6414;SDS011;3240;48.790;9.210;2023-02-25T16:14:05;4.57;;;1.90;;
6414;SDS011;3240;48.790;9.210;2023-02-25T16:16:32;7.20;;;1.47;;
6414;SDS011;3240;48.790;9.210;2023-02-25T16:19:00;6.23;;;1.70;;
6414;SDS011;3240;48.790;9.210;2023-02-25T16:21:30;5.37;;;1.77;;
6414;SDS011;3240;48.790;9.210;2023-02-25T16:23:57;7.00;;;2.10;;
6414;SDS011;3240;48.790;9.210;2023-02-25T16:26:29;5.30;;;2.30;;
6414;SDS011;3240;48.790;9.210;2023-02-25T16:28:58;6.20;;;2.13;;
6414;SDS011;3240;48.790;9.210;2023-02-25T16:31:26;7.07;;;2.07;;
6414;SDS011;3240;48.790;9.210;2023-02-25T16:33:58;7.20;;;2.70;;
6414;SDS011;3240;48.790;9.210;2023-02-25T16:36:42;9.67;;;2.57;;
6414;SDS011;3240;48.790;9.210;2023-02-25T16:39:11;9.07;;;2.23;;
6414;SDS011;3240;48.790;9.210;2023-02-25T16:41:38;8.33;;;2.30;;
6414;SDS011;3240;48.790;9.210;2023-02-25T16:44:06;5.10;;;2.00;;
6414;SDS011;3240;48.790;9.210;2023-02-25T16:46:35;6.00;;;1.97;;
6414;SDS011;3240;48.790;9.210;2023-02-25T16:49:06;6.73;;;2.00;;
6414;SDS011;3240;48.790;9.210;2023-02-25T16:51:32;9.40;;;2.20;;
6414;SDS011;3240;48.790;9.210;2023-02-25T16:54:07;7.43;;;2.00;;
6414;SDS011;3240;48.790;9.210;2023-02-25T16:56:33;6.10;;;2.13;;
6414;SDS011;3240;48.790;9.210;2023-02-25T16:59:04;9.40;;;2.17;;
6414;SDS011;3240;48.790;9.210;2023-02-25T17:01:32;5.97;;;2.07;;
6414;SDS011;3240;48.790;9.210;2023-02-25T17:04:02;7.30;;;2.20;;
6414;SDS011;3240;48.790;9.210;2023-02-25T17:06:28;4.20;;;2.13;;